Time;durP1;ratioP1;P1;durP2;ratioP2;P2;SDS_P1;SDS_P2;PMS_P1;PMS_P2;Temp;Humidity;BMP_temperature;BMP_pressure;BME280_temperature;BME280_humidity;BME280_pressure;Samples;Min_cycle;Max_cycle;Signal;HPM_P1;HPM_P2
2022/02/27 00:01:49;;;;;;;55.17;32.13;;;;;;;;;;759491;184;618694;-62
2022/02/27 00:04:14;;;;;;;64.90;34.37;;;;;;;;;;751738;184;636735;-60
2022/02/27 00:06:40;;;;;;;61.33;30.73;;;;;;;;;;758742;184;625542;-61
2022/02/27 00:09:06;;;;;;;63.43;31.73;;;;;;;;;;757336;184;613971;-61
2022/02/27 00:11:32;;;;;;;53.93;31.40;;;;;;;;;;752003;184;614411;-61
2022/02/27 00:13:58;;;;;;;66.03;35.00;;;;;;;;;;750352;184;640510;-61
2022/02/27 00:16:24;;;;;;;62.30;31.40;;;;;;;;;;757061;184;616941;-61
2022/02/27 00:18:50;;;;;;;60.40;33.80;;;;;;;;;;748732;184;626486;-60
2022/02/27 00:21:16;;;;;;;69.80;38.97;;;;;;;;;;755282;184;633039;-60
2022/02/27 00:23:42;;;;;;;64.75;32.45;;;;;;;;;;755955;186;631006;-60
2022/02/27 00:26:08;;;;;;;69.70;32.37;;;;;;;;;;757231;185;613926;-60
2022/02/27 00:28:34;;;;;;;65.47;32.30;;;;;;;;;;749037;183;645828;-61
2022/02/27 00:31:00;;;;;;;64.63;34.27;;;;;;;;;;761935;183;617094;-60
2022/02/27 00:33:26;;;;;;;61.10;33.80;;;;;;;;;;759298;183;627050;-61
2022/02/27 00:35:52;;;;;;;61.47;33.47;;;;;;;;;;755958;184;654937;-60
2022/02/27 00:38:18;;;;;;;66.30;31.83;;;;;;;;;;751967;184;633499;-60
2022/02/27 00:40:43;;;;;;;71.20;34.40;;;;;;;;;;759013;185;634076;-60
2022/02/27 00:43:09;;;;;;;72.20;34.13;;;;;;;;;;761098;183;616845;-60
2022/02/27 00:45:35;;;;;;;69.10;33.50;;;;;;;;;;768362;183;629078;-60
2022/02/27 00:48:01;;;;;;;63.20;34.23;;;;;;;;;;763646;183;653107;-60
2022/02/27 00:50:27;;;;;;;60.90;34.53;;;;;;;;;;753784;184;624950;-60
2022/02/27 00:52:53;;;;;;;65.00;34.90;;;;;;;;;;755262;183;630814;-60
2022/02/27 00:55:18;;;;;;;64.57;33.90;;;;;;;;;;757343;184;631457;-60
2022/02/27 00:57:44;;;;;;;68.27;35.90;;;;;;;;;;760831;183;651126;-60
2022/02/27 01:00:10;;;;;;;71.27;37.43;;;;;;;;;;755347;183;633472;-60
2022/02/27 01:02:36;;;;;;;63.77;34.27;;;;;;;;;;759643;184;636859;-60
2022/02/27 01:05:02;;;;;;;79.90;39.40;;;;;;;;;;761840;184;681982;-60
2022/02/27 01:07:28;;;;;;;83.47;39.70;;;;;;;;;;763085;184;637756;-60
2022/02/27 01:09:54;;;;;;;81.97;38.60;;;;;;;;;;758837;184;638967;-60
2022/02/27 01:12:19;;;;;;;78.13;38.53;;;;;;;;;;759585;184;639443;-60
2022/02/27 01:14:46;;;;;;;78.43;34.90;;;;;;;;;;753494;183;668791;-60
2022/02/27 01:17:11;;;;;;;78.73;38.03;;;;;;;;;;753659;184;624965;-60
2022/02/27 01:19:37;;;;;;;72.90;36.63;;;;;;;;;;755045;184;627312;-60
2022/02/27 01:22:03;;;;;;;89.33;40.30;;;;;;;;;;761982;179;626163;-60
2022/02/27 01:24:30;;;;;;;81.23;40.10;;;;;;;;;;752842;184;626253;-60
2022/02/27 01:26:55;;;;;;;78.97;36.33;;;;;;;;;;755756;184;625459;-58
2022/02/27 01:29:21;;;;;;;80.00;38.87;;;;;;;;;;763523;184;623128;-60
2022/02/27 01:31:47;;;;;;;65.00;30.20;;;;;;;;;;765637;184;639771;-60
2022/02/27 01:34:13;;;;;;;85.27;40.40;;;;;;;;;;756229;184;619270;-60
2022/02/27 01:36:38;;;;;;;79.40;39.40;;;;;;;;;;755453;184;623840;-60
2022/02/27 01:39:04;;;;;;;69.87;34.83;;;;;;;;;;750604;185;617923;-59
2022/02/27 01:41:30;;;;;;;77.93;40.00;;;;;;;;;;755272;185;638870;-60
2022/02/27 01:43:56;;;;;;;73.27;38.37;;;;;;;;;;758107;184;630407;-59
2022/02/27 01:46:22;;;;;;;77.37;37.47;;;;;;;;;;756046;184;628087;-59
2022/02/27 01:48:48;;;;;;;80.70;37.97;;;;;;;;;;757439;184;618113;-60
2022/02/27 01:51:13;;;;;;;89.53;39.57;;;;;;;;;;749444;184;615570;-59
2022/02/27 01:53:39;;;;;;;86.57;40.00;;;;;;;;;;754654;183;615272;-59
2022/02/27 01:56:05;;;;;;;88.93;38.07;;;;;;;;;;758759;183;628418;-59
2022/02/27 01:58:32;;;;;;;89.27;43.30;;;;;;;;;;751942;184;632781;-60
2022/02/27 02:00:57;;;;;;;90.20;42.80;;;;;;;;;;767039;183;621000;-59
2022/02/27 02:03:23;;;;;;;79.70;37.67;;;;;;;;;;757649;183;629459;-59
2022/02/27 02:05:49;;;;;;;86.87;40.43;;;;;;;;;;753969;184;628286;-59
2022/02/27 02:08:15;;;;;;;77.60;39.37;;;;;;;;;;759581;184;617302;-60
2022/02/27 02:10:41;;;;;;;82.00;36.17;;;;;;;;;;753560;184;623191;-60
2022/02/27 02:13:07;;;;;;;86.67;45.00;;;;;;;;;;756941;184;618845;-59
2022/02/27 02:15:33;;;;;;;86.47;35.93;;;;;;;;;;764740;184;628866;-59
2022/02/27 02:17:59;;;;;;;74.40;36.43;;;;;;;;;;767675;179;615661;-59
2022/02/27 02:20:25;;;;;;;80.23;40.27;;;;;;;;;;752076;184;624099;-60
2022/02/27 02:22:50;;;;;;;102.97;41.13;;;;;;;;;;756201;183;626217;-59
2022/02/27 02:25:16;;;;;;;86.57;41.43;;;;;;;;;;759864;184;627034;-60
2022/02/27 02:27:42;;;;;;;82.32;38.30;;;;;;;;;;756153;180;627827;-59
2022/02/27 02:30:09;;;;;;;66.97;38.77;;;;;;;;;;753767;184;628898;-60
2022/02/27 02:32:34;;;;;;;76.80;40.13;;;;;;;;;;757163;184;628858;-59
2022/02/27 02:35:00;;;;;;;68.07;35.83;;;;;;;;;;752519;184;721887;-59
2022/02/27 02:37:26;;;;;;;83.80;44.27;;;;;;;;;;750667;184;627275;-59
2022/02/27 02:39:53;;;;;;;80.20;39.43;;;;;;;;;;757037;184;625069;-59
2022/02/27 02:42:17;;;;;;;95.90;46.77;;;;;;;;;;755464;184;629028;-59
2022/02/27 02:44:43;;;;;;;93.73;46.87;;;;;;;;;;756490;184;646793;-59
2022/02/27 02:47:09;;;;;;;89.50;41.23;;;;;;;;;;762359;184;618109;-59
2022/02/27 02:49:35;;;;;;;92.00;43.20;;;;;;;;;;762880;184;632014;-59
2022/02/27 02:52:01;;;;;;;100.50;45.80;;;;;;;;;;754475;185;636069;-60
2022/02/27 02:54:27;;;;;;;79.57;40.77;;;;;;;;;;755790;184;637674;-59
2022/02/27 02:56:53;;;;;;;88.77;41.83;;;;;;;;;;755958;184;698172;-59
2022/02/27 02:59:19;;;;;;;87.93;43.17;;;;;;;;;;750964;184;633065;-60
2022/02/27 03:01:44;;;;;;;85.23;42.53;;;;;;;;;;749294;184;632501;-58
2022/02/27 03:04:10;;;;;;;82.27;41.43;;;;;;;;;;766698;184;613095;-59
2022/02/27 03:06:36;;;;;;;81.40;41.63;;;;;;;;;;758416;181;614869;-59
2022/02/27 03:09:02;;;;;;;106.30;44.17;;;;;;;;;;752771;184;636226;-60
2022/02/27 03:11:28;;;;;;;90.90;43.77;;;;;;;;;;761736;183;616807;-59
2022/02/27 03:13:59;;;;;;;82.70;38.30;;;;;;;;;;754401;185;617324;-59
2022/02/27 03:16:19;;;;;;;92.85;44.30;;;;;;;;;;749217;183;627289;-59
2022/02/27 03:18:45;;;;;;;87.17;42.37;;;;;;;;;;757454;183;635901;-59
2022/02/27 03:21:11;;;;;;;69.93;32.63;;;;;;;;;;758974;184;631013;-59
2022/02/27 03:23:37;;;;;;;89.30;39.40;;;;;;;;;;752784;183;638470;-58
2022/02/27 03:26:03;;;;;;;92.70;44.73;;;;;;;;;;748511;184;627351;-59
2022/02/27 03:28:29;;;;;;;86.90;42.10;;;;;;;;;;767894;183;614983;-59
2022/02/27 03:30:54;;;;;;;92.73;44.67;;;;;;;;;;754749;184;618659;-59
2022/02/27 03:33:20;;;;;;;92.97;46.07;;;;;;;;;;757985;184;627481;-59
2022/02/27 03:35:46;;;;;;;98.50;43.20;;;;;;;;;;763424;184;615934;-59
2022/02/27 03:38:12;;;;;;;80.70;45.27;;;;;;;;;;759954;183;627551;-59
2022/02/27 03:40:38;;;;;;;98.27;45.67;;;;;;;;;;762251;183;633573;-59
2022/02/27 03:43:04;;;;;;;87.97;46.43;;;;;;;;;;757779;184;621877;-58
2022/02/27 03:45:30;;;;;;;101.87;50.37;;;;;;;;;;764078;180;620249;-59
2022/02/27 03:47:55;;;;;;;98.10;47.90;;;;;;;;;;757485;184;639938;-59
2022/02/27 03:50:21;;;;;;;98.77;49.57;;;;;;;;;;754007;184;615108;-59
2022/02/27 03:52:47;;;;;;;98.73;47.23;;;;;;;;;;757763;185;622847;-58
2022/02/27 03:55:13;;;;;;;102.80;47.03;;;;;;;;;;756563;183;627059;-60
2022/02/27 03:57:39;;;;;;;102.20;46.43;;;;;;;;;;750651;183;629883;-59
2022/02/27 04:00:05;;;;;;;87.83;43.10;;;;;;;;;;758963;184;628838;-59
2022/02/27 04:02:31;;;;;;;105.07;46.00;;;;;;;;;;756124;184;617041;-59
2022/02/27 04:04:57;;;;;;;90.77;45.40;;;;;;;;;;752634;184;633712;-59
2022/02/27 04:07:22;;;;;;;85.10;41.13;;;;;;;;;;758530;184;618153;-60
2022/02/27 04:09:48;;;;;;;103.67;47.87;;;;;;;;;;757256;184;637802;-59
2022/02/27 04:12:14;;;;;;;93.40;45.20;;;;;;;;;;756503;184;625281;-59
2022/02/27 04:14:40;;;;;;;111.13;49.13;;;;;;;;;;754960;184;628976;-59
2022/02/27 04:17:06;;;;;;;109.77;52.47;;;;;;;;;;760439;184;626568;-60
2022/02/27 04:19:32;;;;;;;91.17;44.67;;;;;;;;;;764304;183;631458;-59
2022/02/27 04:21:58;;;;;;;121.80;57.20;;;;;;;;;;755664;183;623303;-59
2022/02/27 04:24:23;;;;;;;110.43;55.70;;;;;;;;;;762565;183;610991;-59
2022/02/27 04:26:51;;;;;;;96.93;49.90;;;;;;;;;;752132;183;628094;-59
2022/02/27 04:29:15;;;;;;;110.93;56.20;;;;;;;;;;755146;184;635986;-59
2022/02/27 04:31:41;;;;;;;116.63;54.20;;;;;;;;;;758956;183;614690;-59
2022/02/27 04:34:07;;;;;;;125.90;57.83;;;;;;;;;;754795;184;654945;-59
2022/02/27 04:36:33;;;;;;;129.20;54.37;;;;;;;;;;759295;183;639350;-58
2022/02/27 04:38:58;;;;;;;108.40;50.03;;;;;;;;;;754208;184;618201;-59
2022/02/27 04:41:24;;;;;;;142.27;56.70;;;;;;;;;;759163;185;626574;-59
2022/02/27 04:43:50;;;;;;;133.00;57.53;;;;;;;;;;757336;183;627543;-60
2022/02/27 04:46:16;;;;;;;132.60;62.67;;;;;;;;;;754793;184;616972;-60
2022/02/27 04:48:42;;;;;;;119.20;48.97;;;;;;;;;;756585;184;621587;-59
2022/02/27 04:51:08;;;;;;;141.87;63.40;;;;;;;;;;756951;184;633544;-59
2022/02/27 04:53:34;;;;;;;125.20;61.77;;;;;;;;;;754726;184;618049;-59
2022/02/27 04:55:59;;;;;;;126.07;55.50;;;;;;;;;;758552;184;623404;-59
2022/02/27 04:58:25;;;;;;;92.97;41.53;;;;;;;;;;757869;184;633985;-59
2022/02/27 05:00:51;;;;;;;135.57;63.57;;;;;;;;;;754791;184;644185;-59
2022/02/27 05:03:17;;;;;;;127.83;57.30;;;;;;;;;;759580;184;617495;-58
2022/02/27 05:05:43;;;;;;;88.10;32.63;;;;;;;;;;755392;184;634845;-59
2022/02/27 05:08:09;;;;;;;153.30;64.13;;;;;;;;;;753137;184;635455;-59
2022/02/27 05:10:36;;;;;;;169.23;58.70;;;;;;;;;;757369;183;625278;-59
2022/02/27 05:13:00;;;;;;;132.80;64.43;;;;;;;;;;759733;184;626799;-59
2022/02/27 05:15:26;;;;;;;96.07;45.83;;;;;;;;;;755947;184;634366;-58
2022/02/27 05:17:52;;;;;;;131.17;61.07;;;;;;;;;;755802;184;635180;-59
2022/02/27 05:20:18;;;;;;;115.03;50.67;;;;;;;;;;757275;184;615586;-60
2022/02/27 05:22:44;;;;;;;136.73;54.60;;;;;;;;;;753028;184;626172;-59
2022/02/27 05:25:10;;;;;;;131.30;55.20;;;;;;;;;;756463;183;647898;-59
2022/02/27 05:27:35;;;;;;;131.33;57.27;;;;;;;;;;762034;183;634231;-59
2022/02/27 05:30:01;;;;;;;151.17;59.90;;;;;;;;;;757288;183;629278;-59
2022/02/27 05:32:27;;;;;;;117.43;51.57;;;;;;;;;;755410;183;629344;-59
2022/02/27 05:34:53;;;;;;;117.43;51.00;;;;;;;;;;758679;183;648531;-59
2022/02/27 05:37:19;;;;;;;131.90;55.90;;;;;;;;;;752271;185;627781;-59
2022/02/27 05:39:45;;;;;;;123.40;53.57;;;;;;;;;;757757;183;637650;-60
2022/02/27 05:42:11;;;;;;;120.93;54.30;;;;;;;;;;756474;184;646970;-60
2022/02/27 05:44:36;;;;;;;123.97;57.90;;;;;;;;;;759839;184;626868;-60
2022/02/27 05:47:02;;;;;;;142.83;61.30;;;;;;;;;;758811;183;616310;-59
2022/02/27 05:49:28;;;;;;;139.87;54.30;;;;;;;;;;757661;184;640100;-60
2022/02/27 05:51:54;;;;;;;110.37;42.03;;;;;;;;;;757485;184;639772;-60
2022/02/27 05:54:20;;;;;;;114.53;51.80;;;;;;;;;;755644;183;646785;-60
2022/02/27 05:56:46;;;;;;;145.33;55.90;;;;;;;;;;756467;183;667294;-59
2022/02/27 05:59:12;;;;;;;145.00;57.37;;;;;;;;;;759556;184;703185;-61
2022/02/27 06:01:37;;;;;;;135.02;62.00;;;;;;;;;;756009;183;870294;-60
2022/02/27 06:04:03;;;;;;;156.53;68.60;;;;;;;;;;755621;184;653784;-60
2022/02/27 06:06:29;;;;;;;149.60;65.97;;;;;;;;;;748666;187;627365;-60
2022/02/27 06:08:55;;;;;;;115.23;45.93;;;;;;;;;;767686;183;622970;-60
2022/02/27 06:11:21;;;;;;;157.67;64.97;;;;;;;;;;759849;184;637389;-60
2022/02/27 06:13:47;;;;;;;170.70;77.43;;;;;;;;;;755090;184;621090;-60
2022/02/27 06:16:13;;;;;;;136.17;60.87;;;;;;;;;;756533;183;624075;-60
2022/02/27 06:18:38;;;;;;;154.43;69.43;;;;;;;;;;755002;184;618690;-61
2022/02/27 06:21:05;;;;;;;159.37;63.47;;;;;;;;;;756277;184;626225;-61
2022/02/27 06:23:30;;;;;;;145.07;66.13;;;;;;;;;;762380;184;642144;-61
2022/02/27 06:25:56;;;;;;;137.20;55.47;;;;;;;;;;750624;184;629030;-60
2022/02/27 06:28:22;;;;;;;173.40;66.60;;;;;;;;;;756489;184;625966;-60
2022/02/27 06:30:48;;;;;;;177.20;71.13;;;;;;;;;;756439;184;676598;-60
2022/02/27 06:33:14;;;;;;;159.97;64.53;;;;;;;;;;756013;185;619018;-60
2022/02/27 06:35:39;;;;;;;156.70;63.77;;;;;;;;;;747445;184;633749;-60
2022/02/27 06:38:05;;;;;;;131.43;60.93;;;;;;;;;;756786;184;617941;-60
2022/02/27 06:40:31;;;;;;;131.60;52.67;;;;;;;;;;760935;184;616732;-60
2022/02/27 06:42:57;;;;;;;154.87;68.07;;;;;;;;;;753842;184;627841;-60
2022/02/27 06:45:23;;;;;;;144.83;61.20;;;;;;;;;;753801;183;688304;-60
2022/02/27 06:47:49;;;;;;;174.67;71.03;;;;;;;;;;757302;184;689791;-60
2022/02/27 06:50:15;;;;;;;175.73;72.13;;;;;;;;;;754199;184;629776;-60
2022/02/27 06:52:40;;;;;;;168.57;65.67;;;;;;;;;;762276;184;640365;-60
2022/02/27 06:55:06;;;;;;;147.73;62.33;;;;;;;;;;761072;184;637714;-60
2022/02/27 06:57:32;;;;;;;119.43;50.10;;;;;;;;;;753050;184;625258;-60
2022/02/27 06:59:58;;;;;;;132.03;53.43;;;;;;;;;;757107;184;636089;-60
2022/02/27 07:02:24;;;;;;;131.07;54.37;;;;;;;;;;756631;184;636862;-61
2022/02/27 07:04:50;;;;;;;168.50;68.40;;;;;;;;;;755258;184;615642;-61
2022/02/27 07:07:16;;;;;;;176.20;63.43;;;;;;;;;;749987;184;634649;-60
2022/02/27 07:09:42;;;;;;;161.47;69.33;;;;;;;;;;749476;183;635718;-60
2022/02/27 07:12:08;;;;;;;194.03;83.90;;;;;;;;;;752203;183;630450;-60
2022/02/27 07:14:34;;;;;;;152.67;71.53;;;;;;;;;;757843;183;635404;-60
2022/02/27 07:16:59;;;;;;;147.83;65.43;;;;;;;;;;763614;184;623602;-60
2022/02/27 07:19:26;;;;;;;159.87;72.10;;;;;;;;;;756397;184;620204;-61
2022/02/27 07:21:51;;;;;;;104.43;47.27;;;;;;;;;;752814;184;627503;-60
2022/02/27 07:24:18;;;;;;;143.10;62.10;;;;;;;;;;757910;183;627461;-59
2022/02/27 07:26:43;;;;;;;109.00;47.63;;;;;;;;;;745475;184;644012;-60
2022/02/27 07:29:09;;;;;;;120.53;59.37;;;;;;;;;;759101;183;615044;-60
2022/02/27 07:31:35;;;;;;;159.77;74.63;;;;;;;;;;756702;184;616819;-60
2022/02/27 07:34:02;;;;;;;137.00;59.57;;;;;;;;;;760020;184;626275;-60
2022/02/27 07:36:26;;;;;;;126.57;58.50;;;;;;;;;;752839;184;706248;-61
2022/02/27 07:38:52;;;;;;;92.30;43.43;;;;;;;;;;757057;184;633724;-60
2022/02/27 07:41:18;;;;;;;111.10;48.70;;;;;;;;;;753234;184;696048;-59
2022/02/27 07:43:45;;;;;;;131.63;61.80;;;;;;;;;;759105;184;617116;-60
2022/02/27 07:46:11;;;;;;;159.97;61.37;;;;;;;;;;754984;184;696884;-61
2022/02/27 07:48:37;;;;;;;121.63;53.13;;;;;;;;;;756498;184;627946;-60
2022/02/27 07:51:03;;;;;;;105.63;50.60;;;;;;;;;;756567;184;630256;-60
2022/02/27 07:53:29;;;;;;;92.40;42.30;;;;;;;;;;769156;178;640117;-60
2022/02/27 07:55:55;;;;;;;125.43;55.77;;;;;;;;;;754375;183;621352;-60
2022/02/27 07:58:21;;;;;;;83.43;40.70;;;;;;;;;;755258;184;623076;-60
2022/02/27 08:00:47;;;;;;;97.03;45.67;;;;;;;;;;763799;183;620284;-60
2022/02/27 08:03:12;;;;;;;138.53;58.30;;;;;;;;;;764500;184;614572;-60
2022/02/27 08:05:40;;;;;;;107.77;45.67;;;;;;;;;;762084;184;625050;-60
2022/02/27 08:08:04;;;;;;;89.40;39.20;;;;;;;;;;761063;183;623705;-60
2022/02/27 08:10:30;;;;;;;119.47;54.57;;;;;;;;;;757317;184;626578;-60
2022/02/27 08:12:56;;;;;;;137.07;60.13;;;;;;;;;;759483;184;624160;-59
2022/02/27 08:15:22;;;;;;;132.70;58.10;;;;;;;;;;755704;184;614281;-60
2022/02/27 08:17:51;;;;;;;111.20;53.70;;;;;;;;;;753589;184;653835;-61
2022/02/27 08:20:13;;;;;;;117.20;57.93;;;;;;;;;;752484;184;632859;-59
2022/02/27 08:22:40;;;;;;;119.70;56.53;;;;;;;;;;755472;184;634480;-60
2022/02/27 08:25:06;;;;;;;123.47;60.13;;;;;;;;;;753926;184;625152;-60
2022/02/27 08:27:32;;;;;;;65.77;28.10;;;;;;;;;;763468;183;637130;-59
2022/02/27 08:29:58;;;;;;;105.50;46.20;;;;;;;;;;758755;184;621027;-59
2022/02/27 08:32:24;;;;;;;101.37;47.43;;;;;;;;;;758495;184;623785;-59
2022/02/27 08:34:49;;;;;;;111.20;46.77;;;;;;;;;;755839;183;627797;-60
2022/02/27 08:37:15;;;;;;;108.07;50.50;;;;;;;;;;755031;184;624721;-60
2022/02/27 08:39:41;;;;;;;120.33;57.20;;;;;;;;;;761180;184;626815;-60
2022/02/27 08:42:07;;;;;;;108.73;44.83;;;;;;;;;;755080;184;635576;-60
2022/02/27 08:44:34;;;;;;;118.37;56.70;;;;;;;;;;753755;183;626813;-60
2022/02/27 08:47:00;;;;;;;100.60;45.37;;;;;;;;;;753573;184;743774;-60
2022/02/27 08:49:26;;;;;;;115.57;52.50;;;;;;;;;;759260;184;628844;-60
2022/02/27 08:51:52;;;;;;;110.03;55.90;;;;;;;;;;755765;184;616771;-60
2022/02/27 08:54:18;;;;;;;126.70;57.77;;;;;;;;;;754999;184;630132;-60
2022/02/27 08:56:44;;;;;;;104.23;53.50;;;;;;;;;;761977;184;633487;-60
2022/02/27 08:59:09;;;;;;;113.97;55.47;;;;;;;;;;754787;184;629733;-60
2022/02/27 09:01:35;;;;;;;124.27;62.73;;;;;;;;;;756630;184;615190;-60
2022/02/27 09:04:01;;;;;;;130.60;57.67;;;;;;;;;;761771;184;635013;-60
2022/02/27 09:06:27;;;;;;;129.90;55.60;;;;;;;;;;757181;183;618101;-60
2022/02/27 09:08:53;;;;;;;93.00;43.93;;;;;;;;;;757454;183;625522;-60
2022/02/27 09:11:19;;;;;;;132.07;59.50;;;;;;;;;;755086;183;614698;-60
2022/02/27 09:13:45;;;;;;;106.17;45.73;;;;;;;;;;752633;183;636007;-61
2022/02/27 09:16:10;;;;;;;118.53;50.17;;;;;;;;;;757658;184;628709;-60
2022/02/27 09:18:36;;;;;;;117.30;57.87;;;;;;;;;;761455;183;634637;-60
2022/02/27 09:21:02;;;;;;;105.43;47.90;;;;;;;;;;759848;184;619543;-60
2022/02/27 09:23:28;;;;;;;123.40;58.10;;;;;;;;;;759744;184;618057;-60
2022/02/27 09:25:54;;;;;;;109.60;53.07;;;;;;;;;;755844;184;642661;-60
2022/02/27 09:28:20;;;;;;;112.93;52.33;;;;;;;;;;756787;184;701185;-60
2022/02/27 09:30:47;;;;;;;112.83;54.07;;;;;;;;;;756674;183;678816;-60
2022/02/27 09:33:13;;;;;;;103.18;51.25;;;;;;;;;;738721;184;3623550;-60
2022/02/27 09:35:39;;;;;;;128.52;56.95;;;;;;;;;;757488;184;634153;-60
2022/02/27 09:38:05;;;;;;;107.73;50.93;;;;;;;;;;761971;181;647055;-60
2022/02/27 09:40:31;;;;;;;130.43;55.03;;;;;;;;;;755587;184;673899;-60
2022/02/27 09:42:57;;;;;;;142.83;62.00;;;;;;;;;;753505;184;635430;-62
2022/02/27 09:45:23;;;;;;;142.43;57.67;;;;;;;;;;761139;184;628376;-60
2022/02/27 09:47:49;;;;;;;98.20;46.33;;;;;;;;;;757630;184;628211;-60
2022/02/27 09:50:14;;;;;;;172.00;65.37;;;;;;;;;;755603;183;633495;-60
2022/02/27 09:52:40;;;;;;;96.00;47.70;;;;;;;;;;757810;184;628034;-60
2022/02/27 09:55:06;;;;;;;126.57;55.00;;;;;;;;;;753345;184;634822;-60
2022/02/27 09:57:32;;;;;;;116.73;56.10;;;;;;;;;;754308;184;619152;-60
2022/02/27 09:59:58;;;;;;;119.73;56.00;;;;;;;;;;757220;184;638089;-60
2022/02/27 10:02:24;;;;;;;106.13;56.13;;;;;;;;;;756554;184;621197;-60
2022/02/27 10:04:50;;;;;;;124.97;64.77;;;;;;;;;;752357;184;631432;-60
2022/02/27 10:07:16;;;;;;;148.23;68.47;;;;;;;;;;757530;184;632220;-60
2022/02/27 10:09:41;;;;;;;147.40;66.83;;;;;;;;;;759478;184;638715;-60
2022/02/27 10:12:13;;;;;;;66.03;34.33;;;;;;;;;;757259;183;628092;-60
2022/02/27 10:14:39;;;;;;;89.27;38.60;;;;;;;;;;753008;183;636746;-60
2022/02/27 10:17:05;;;;;;;90.23;41.17;;;;;;;;;;758880;184;615589;-59
2022/02/27 10:19:33;;;;;;;69.50;33.07;;;;;;;;;;755629;183;634033;-59
2022/02/27 10:21:56;;;;;;;72.87;36.07;;;;;;;;;;754681;183;645171;-60
2022/02/27 10:24:22;;;;;;;69.10;35.37;;;;;;;;;;757685;183;627559;-60
2022/02/27 10:26:49;;;;;;;98.13;42.23;;;;;;;;;;755919;184;628620;-60
2022/02/27 10:29:14;;;;;;;72.73;38.53;;;;;;;;;;759163;183;635429;-60
2022/02/27 10:31:41;;;;;;;107.80;49.50;;;;;;;;;;760228;184;641175;-60
2022/02/27 10:34:11;;;;;;;108.53;54.20;;;;;;;;;;761706;184;635339;-59
2022/02/27 10:36:37;;;;;;;67.47;30.93;;;;;;;;;;755033;184;632991;-59
2022/02/27 10:39:03;;;;;;;65.63;33.97;;;;;;;;;;752204;184;631617;-60
2022/02/27 10:41:35;;;;;;;55.50;28.43;;;;;;;;;;753901;184;628458;-59
2022/02/27 10:44:01;;;;;;;63.33;29.93;;;;;;;;;;761058;183;635536;-60
2022/02/27 10:46:29;;;;;;;66.50;29.53;;;;;;;;;;751533;184;634119;-60
2022/02/27 10:48:52;;;;;;;44.17;23.10;;;;;;;;;;750292;184;632282;-64
2022/02/27 10:51:18;;;;;;;32.63;18.60;;;;;;;;;;758384;183;638805;-60
2022/02/27 10:53:45;;;;;;;51.60;24.83;;;;;;;;;;764355;184;630287;-59
2022/02/27 10:56:10;;;;;;;67.43;26.33;;;;;;;;;;756703;185;614001;-60
2022/02/27 10:58:45;;;;;;;45.97;27.67;;;;;;;;;;753239;184;621771;-59
2022/02/27 11:01:16;;;;;;;59.70;28.93;;;;;;;;;;756200;185;639162;-60
2022/02/27 11:03:42;;;;;;;46.43;23.67;;;;;;;;;;752700;184;629777;-60
2022/02/27 11:06:08;;;;;;;72.60;32.27;;;;;;;;;;757347;184;618499;-60
2022/02/27 11:08:34;;;;;;;50.13;26.40;;;;;;;;;;754108;184;636298;-60
2022/02/27 11:11:00;;;;;;;50.30;26.73;;;;;;;;;;766230;184;617688;-59
2022/02/27 11:13:25;;;;;;;58.00;32.73;;;;;;;;;;752795;184;632258;-59
2022/02/27 11:15:51;;;;;;;44.13;23.67;;;;;;;;;;752082;184;634059;-60
2022/02/27 11:18:17;;;;;;;38.20;19.07;;;;;;;;;;764225;183;623477;-58
2022/02/27 11:20:43;;;;;;;69.07;33.40;;;;;;;;;;753780;185;633873;-59
2022/02/27 11:23:09;;;;;;;31.43;17.77;;;;;;;;;;753291;185;624330;-60
2022/02/27 11:25:35;;;;;;;56.77;30.17;;;;;;;;;;757166;184;682434;-59
2022/02/27 11:28:01;;;;;;;49.60;26.37;;;;;;;;;;757166;183;624173;-59
2022/02/27 11:30:28;;;;;;;49.70;30.40;;;;;;;;;;756110;183;632287;-59
2022/02/27 11:32:54;;;;;;;45.83;23.47;;;;;;;;;;764979;183;616250;-60
2022/02/27 11:35:26;;;;;;;56.00;25.90;;;;;;;;;;760859;182;618300;-59
2022/02/27 11:37:51;;;;;;;34.63;19.00;;;;;;;;;;755137;184;637742;-59
2022/02/27 11:42:49;;;;;;;52.67;24.83;;;;;;;;;;756937;184;626948;-58
2022/02/27 11:45:21;;;;;;;49.70;27.93;;;;;;;;;;764121;180;625159;-59
2022/02/27 11:47:46;;;;;;;43.17;26.60;;;;;;;;;;754663;183;627143;-59
2022/02/27 11:50:31;;;;;;;39.50;16.97;;;;;;;;;;754723;184;637518;-59
2022/02/27 11:52:57;;;;;;;28.47;16.20;;;;;;;;;;753506;184;652500;-60
2022/02/27 11:55:29;;;;;;;30.43;19.73;;;;;;;;;;759641;184;622104;-59
2022/02/27 11:57:55;;;;;;;35.87;18.30;;;;;;;;;;760883;183;627248;-61
2022/02/27 12:00:21;;;;;;;41.47;21.03;;;;;;;;;;755665;183;630002;-59
2022/02/27 12:02:48;;;;;;;35.57;15.93;;;;;;;;;;752577;184;635083;-59
2022/02/27 12:05:13;;;;;;;31.63;18.53;;;;;;;;;;759000;184;626028;-58
2022/02/27 12:07:45;;;;;;;25.50;14.67;;;;;;;;;;755370;184;634435;-59
2022/02/27 12:10:11;;;;;;;94.17;39.73;;;;;;;;;;755327;184;626101;-58
2022/02/27 12:12:51;;;;;;;37.90;21.53;;;;;;;;;;754498;184;631508;-58
2022/02/27 12:15:17;;;;;;;64.40;37.10;;;;;;;;;;753529;184;764480;-58
2022/02/27 12:17:57;;;;;;;25.83;12.03;;;;;;;;;;752740;183;634611;-59
2022/02/27 12:20:29;;;;;;;20.63;14.03;;;;;;;;;;754520;184;632408;-59
2022/02/27 12:22:56;;;;;;;21.57;14.27;;;;;;;;;;755148;184;623025;-57
2022/02/27 12:25:22;;;;;;;31.80;14.93;;;;;;;;;;753837;184;619685;-58
2022/02/27 12:27:48;;;;;;;28.03;15.87;;;;;;;;;;755865;184;633305;-57
2022/02/27 12:30:13;;;;;;;25.50;12.13;;;;;;;;;;757671;184;622795;-58
2022/02/27 12:32:39;;;;;;;29.60;16.87;;;;;;;;;;757760;184;624263;-58
2022/02/27 12:35:05;;;;;;;31.23;17.63;;;;;;;;;;759353;184;630942;-58
2022/02/27 12:37:33;;;;;;;35.47;21.13;;;;;;;;;;759126;183;625523;-58
2022/02/27 12:39:57;;;;;;;30.30;15.20;;;;;;;;;;755055;184;631912;-58
2022/02/27 12:42:23;;;;;;;25.10;14.17;;;;;;;;;;755432;184;685915;-58
2022/02/27 12:44:49;;;;;;;25.23;16.07;;;;;;;;;;763143;183;634566;-58
2022/02/27 12:47:16;;;;;;;27.23;14.10;;;;;;;;;;755072;183;642074;-58
2022/02/27 12:52:14;;;;;;;22.90;11.07;;;;;;;;;;758441;183;619213;-56
2022/02/27 12:54:40;;;;;;;23.03;13.60;;;;;;;;;;753001;183;630745;-58
2022/02/27 12:57:07;;;;;;;23.60;15.03;;;;;;;;;;754098;184;635171;-58
2022/02/27 12:59:32;;;;;;;29.20;12.53;;;;;;;;;;753692;184;624402;-59
2022/02/27 13:01:58;;;;;;;24.87;16.23;;;;;;;;;;759778;184;630034;-58
2022/02/27 13:04:27;;;;;;;21.90;14.23;;;;;;;;;;753067;184;618135;-58
2022/02/27 13:06:58;;;;;;;20.33;11.90;;;;;;;;;;756015;184;637119;-60
2022/02/27 13:09:25;;;;;;;18.43;12.87;;;;;;;;;;756699;183;636397;-59
2022/02/27 13:11:51;;;;;;;34.07;16.13;;;;;;;;;;759409;183;636191;-58
2022/02/27 13:14:16;;;;;;;35.13;14.90;;;;;;;;;;756312;183;622867;-57
2022/02/27 13:16:42;;;;;;;23.20;12.00;;;;;;;;;;753626;184;618162;-58
2022/02/27 13:19:08;;;;;;;29.23;14.83;;;;;;;;;;758816;183;623825;-59
2022/02/27 13:21:34;;;;;;;26.63;11.80;;;;;;;;;;754757;184;624201;-58
2022/02/27 13:24:00;;;;;;;26.50;16.37;;;;;;;;;;755616;184;622891;-59
2022/02/27 13:26:27;;;;;;;26.47;15.93;;;;;;;;;;759258;184;615239;-59
2022/02/27 13:28:52;;;;;;;41.37;22.57;;;;;;;;;;757380;184;638857;-59
2022/02/27 13:31:18;;;;;;;28.60;12.77;;;;;;;;;;755795;184;645022;-59
2022/02/27 13:33:44;;;;;;;23.33;10.23;;;;;;;;;;756159;184;627536;-58
2022/02/27 13:36:10;;;;;;;16.57;10.90;;;;;;;;;;767266;180;632863;-59
2022/02/27 13:38:35;;;;;;;16.83;8.43;;;;;;;;;;753490;184;628977;-58
2022/02/27 13:41:01;;;;;;;15.67;10.47;;;;;;;;;;750881;184;629965;-58
2022/02/27 13:43:27;;;;;;;15.30;9.93;;;;;;;;;;761922;184;637148;-59
2022/02/27 13:45:55;;;;;;;16.00;10.30;;;;;;;;;;755244;180;625092;-59
2022/02/27 13:48:27;;;;;;;11.77;7.80;;;;;;;;;;757812;183;624263;-58
2022/02/27 13:50:52;;;;;;;29.75;13.73;;;;;;;;;;764138;182;620105;-59
2022/02/27 13:53:18;;;;;;;20.33;12.77;;;;;;;;;;758416;180;622915;-59
2022/02/27 13:55:46;;;;;;;16.40;9.30;;;;;;;;;;755216;183;653388;-59
2022/02/27 13:58:10;;;;;;;17.87;11.33;;;;;;;;;;754194;183;620176;-58